sensor_id;sensor_type;location;lat;lon;timestamp;noise_LAeq;noise_LA_min;noise_LA_max;noise_LA01;noise_LA95
57092;Laerm;42968;52.094;4.328;2023-06-22T00:00:38;53.13;37.52;70.10;;
57092;Laerm;42968;52.094;4.328;2023-06-22T00:03:07;55.45;36.91;70.24;;
57092;Laerm;42968;52.094;4.328;2023-06-22T00:05:33;62.39;38.05;81.82;;
57092;Laerm;42968;52.094;4.328;2023-06-22T00:07:58;56.06;37.88;70.69;;
57092;Laerm;42968;52.094;4.328;2023-06-22T00:10:23;41.29;37.12;59.93;;
57092;Laerm;42968;52.094;4.328;2023-06-22T00:12:48;60.76;36.91;79.83;;
57092;Laerm;42968;52.094;4.328;2023-06-22T00:15:14;40.10;36.69;47.42;;
57092;Laerm;42968;52.094;4.328;2023-06-22T00:17:39;53.04;37.12;73.34;;
57092;Laerm;42968;52.094;4.328;2023-06-22T00:20:04;54.40;36.20;69.59;;
57092;Laerm;42968;52.094;4.328;2023-06-22T00:22:30;57.14;37.32;71.41;;
57092;Laerm;42968;52.094;4.328;2023-06-22T00:24:56;51.34;36.20;67.70;;
57092;Laerm;42968;52.094;4.328;2023-06-22T00:27:21;50.21;36.34;66.38;;
57092;Laerm;42968;52.094;4.328;2023-06-22T00:29:47;39.84;35.94;43.14;;
57092;Laerm;42968;52.094;4.328;2023-06-22T00:32:12;39.85;36.45;42.65;;
57092;Laerm;42968;52.094;4.328;2023-06-22T00:34:37;51.74;35.66;66.13;;
57092;Laerm;42968;52.094;4.328;2023-06-22T00:37:02;39.90;35.04;49.95;;
57092;Laerm;42968;52.094;4.328;2023-06-22T00:39:28;47.91;36.69;63.27;;
57092;Laerm;42968;52.094;4.328;2023-06-22T00:41:53;50.71;36.20;66.56;;
57092;Laerm;42968;52.094;4.328;2023-06-22T00:44:18;50.36;35.94;66.21;;
57092;Laerm;42968;52.094;4.328;2023-06-22T00:46:43;39.87;34.69;42.93;;
57092;Laerm;42968;52.094;4.328;2023-06-22T00:49:09;50.21;37.52;65.69;;
57092;Laerm;42968;52.094;4.328;2023-06-22T00:51:34;46.67;37.32;60.05;;
57092;Laerm;42968;52.094;4.328;2023-06-22T00:54:03;55.46;38.37;72.84;;
57092;Laerm;42968;52.094;4.328;2023-06-22T00:56:28;40.76;35.94;51.53;;
57092;Laerm;42968;52.094;4.328;2023-06-22T00:58:54;48.50;36.45;64.71;;
57092;Laerm;42968;52.094;4.328;2023-06-22T01:01:22;53.24;37.70;67.47;;
57092;Laerm;42968;52.094;4.328;2023-06-22T01:03:47;52.82;37.32;67.15;;
57092;Laerm;42968;52.094;4.328;2023-06-22T01:06:15;41.82;37.12;45.33;;
57092;Laerm;42968;52.094;4.328;2023-06-22T01:11:54;52.28;36.69;72.60;;
57092;Laerm;42968;52.094;4.328;2023-06-22T01:13:57;41.55;37.52;51.20;;
57092;Laerm;42968;52.094;4.328;2023-06-22T01:16:31;40.79;36.91;51.70;;
57092;Laerm;42968;52.094;4.328;2023-06-22T01:18:59;55.41;38.37;71.13;;
57092;Laerm;42968;52.094;4.328;2023-06-22T01:21:25;58.58;38.21;73.67;;
57092;Laerm;42968;52.094;4.328;2023-06-22T01:24:02;54.05;37.88;70.03;;
57092;Laerm;42968;52.094;4.328;2023-06-22T01:26:43;56.21;37.70;69.87;;
57092;Laerm;42968;52.094;4.328;2023-06-22T01:29:13;54.94;36.20;73.60;;
57092;Laerm;42968;52.094;4.328;2023-06-22T01:31:40;40.61;36.45;45.69;;
57092;Laerm;42968;52.094;4.328;2023-06-22T01:34:06;40.16;36.45;47.44;;
57092;Laerm;42968;52.094;4.328;2023-06-22T01:36:33;56.21;37.32;71.06;;
57092;Laerm;42968;52.094;4.328;2023-06-22T01:38:58;40.96;35.94;59.64;;
57092;Laerm;42968;52.094;4.328;2023-06-22T01:41:25;50.35;37.12;69.57;;
57092;Laerm;42968;52.094;4.328;2023-06-22T01:43:51;55.66;37.32;71.06;;
57092;Laerm;42968;52.094;4.328;2023-06-22T01:46:17;54.38;36.69;71.52;;
57092;Laerm;42968;52.094;4.328;2023-06-22T01:48:44;42.34;36.69;66.44;;
57092;Laerm;42968;52.094;4.328;2023-06-22T01:51:10;54.85;37.52;72.87;;
57092;Laerm;42968;52.094;4.328;2023-06-22T01:53:35;48.40;36.69;66.97;;
57092;Laerm;42968;52.094;4.328;2023-06-22T01:56:00;59.23;37.12;78.76;;
57092;Laerm;42968;52.094;4.328;2023-06-22T01:58:26;53.57;36.20;73.19;;
57092;Laerm;42968;52.094;4.328;2023-06-22T02:00:53;40.09;36.69;43.29;;
57092;Laerm;42968;52.094;4.328;2023-06-22T02:03:26;50.84;36.91;67.27;;
57092;Laerm;42968;52.094;4.328;2023-06-22T02:05:56;57.05;36.20;73.92;;
57092;Laerm;42968;52.094;4.328;2023-06-22T02:08:28;54.33;38.05;70.85;;
57092;Laerm;42968;52.094;4.328;2023-06-22T02:10:55;49.89;36.69;65.87;;
57092;Laerm;42968;52.094;4.328;2023-06-22T02:13:23;52.84;37.32;69.59;;
57092;Laerm;42968;52.094;4.328;2023-06-22T02:15:49;40.34;37.12;55.07;;
57092;Laerm;42968;52.094;4.328;2023-06-22T02:18:14;55.81;37.52;76.57;;
57092;Laerm;42968;52.094;4.328;2023-06-22T02:20:39;50.07;37.32;66.78;;
57092;Laerm;42968;52.094;4.328;2023-06-22T02:23:05;49.88;37.52;68.64;;
57092;Laerm;42968;52.094;4.328;2023-06-22T02:25:31;53.57;37.70;71.65;;
57092;Laerm;42968;52.094;4.328;2023-06-22T02:27:56;54.28;36.69;71.58;;
57092;Laerm;42968;52.094;4.328;2023-06-22T02:30:22;40.50;36.20;47.95;;
57092;Laerm;42968;52.094;4.328;2023-06-22T02:32:47;56.21;38.05;73.72;;
57092;Laerm;42968;52.094;4.328;2023-06-22T02:35:12;58.18;38.52;73.29;;
57092;Laerm;42968;52.094;4.328;2023-06-22T02:37:38;47.94;37.52;63.67;;
57092;Laerm;42968;52.094;4.328;2023-06-22T02:40:06;60.07;37.88;79.34;;
57092;Laerm;42968;52.094;4.328;2023-06-22T02:42:34;56.17;39.70;71.09;;
57092;Laerm;42968;52.094;4.328;2023-06-22T02:44:59;58.40;38.52;80.87;;
57092;Laerm;42968;52.094;4.328;2023-06-22T02:47:25;44.85;37.52;56.44;;
57092;Laerm;42968;52.094;4.328;2023-06-22T02:49:50;51.90;37.88;72.15;;
57092;Laerm;42968;52.094;4.328;2023-06-22T02:52:16;55.24;38.05;72.51;;
57092;Laerm;42968;52.094;4.328;2023-06-22T02:54:41;53.75;37.70;69.50;;
57092;Laerm;42968;52.094;4.328;2023-06-22T02:57:06;58.46;39.34;73.24;;
57092;Laerm;42968;52.094;4.328;2023-06-22T02:59:31;55.42;38.05;72.96;;
57092;Laerm;42968;52.094;4.328;2023-06-22T03:01:56;54.99;36.69;69.44;;
57092;Laerm;42968;52.094;4.328;2023-06-22T03:04:22;58.51;39.08;72.08;;
57092;Laerm;42968;52.094;4.328;2023-06-22T03:06:47;58.71;38.52;76.82;;
57092;Laerm;42968;52.094;4.328;2023-06-22T03:09:16;60.15;40.13;73.77;;
57092;Laerm;42968;52.094;4.328;2023-06-22T03:11:41;58.74;41.22;72.48;;
57092;Laerm;42968;52.094;4.328;2023-06-22T03:14:07;53.15;39.08;73.38;;
57092;Laerm;42968;52.094;4.328;2023-06-22T03:16:32;59.64;39.34;76.33;;
57092;Laerm;42968;52.094;4.328;2023-06-22T03:18:58;59.38;39.46;74.17;;
57092;Laerm;42968;52.094;4.328;2023-06-22T03:21:25;57.27;40.03;73.54;;
57092;Laerm;42968;52.094;4.328;2023-06-22T03:23:50;60.69;41.38;73.58;;
57092;Laerm;42968;52.094;4.328;2023-06-22T03:26:16;62.34;40.62;78.00;;
57092;Laerm;42968;52.094;4.328;2023-06-22T03:28:42;62.43;41.68;73.81;;
57092;Laerm;42968;52.094;4.328;2023-06-22T03:31:07;64.64;43.34;82.99;;
57092;Laerm;42968;52.094;4.328;2023-06-22T03:33:33;58.59;39.46;71.28;;
57092;Laerm;42968;52.094;4.328;2023-06-22T03:35:58;61.32;40.62;72.99;;
57092;Laerm;42968;52.094;4.328;2023-06-22T03:38:23;59.38;41.61;73.86;;
57092;Laerm;42968;52.094;4.328;2023-06-22T03:40:49;63.13;43.29;74.93;;
57092;Laerm;42968;52.094;4.328;2023-06-22T03:43:14;65.90;41.89;83.96;;
57092;Laerm;42968;52.094;4.328;2023-06-22T03:45:39;63.35;42.71;77.31;;
57092;Laerm;42968;52.094;4.328;2023-06-22T03:48:05;63.47;40.71;79.67;;
57092;Laerm;42968;52.094;4.328;2023-06-22T03:50:31;63.93;42.93;76.11;;
57092;Laerm;42968;52.094;4.328;2023-06-22T03:52:56;63.68;42.29;77.69;;
57092;Laerm;42968;52.094;4.328;2023-06-22T03:55:21;66.98;42.76;81.42;;
57092;Laerm;42968;52.094;4.328;2023-06-22T03:57:47;64.67;40.98;81.05;;
57092;Laerm;42968;52.094;4.328;2023-06-22T04:00:12;64.79;44.11;78.22;;
57092;Laerm;42968;52.094;4.328;2023-06-22T04:02:37;68.11;44.73;88.56;;
57092;Laerm;42968;52.094;4.328;2023-06-22T04:05:03;64.30;45.11;75.32;;
57092;Laerm;42968;52.094;4.328;2023-06-22T04:07:28;64.98;46.80;74.45;;
57092;Laerm;42968;52.094;4.328;2023-06-22T04:09:53;64.53;43.24;75.70;;
57092;Laerm;42968;52.094;4.328;2023-06-22T04:12:19;64.95;43.14;77.31;;
57092;Laerm;42968;52.094;4.328;2023-06-22T04:14:44;66.38;46.02;76.98;;
57092;Laerm;42968;52.094;4.328;2023-06-22T04:17:09;64.41;44.87;76.50;;
57092;Laerm;42968;52.094;4.328;2023-06-22T04:19:34;66.56;45.04;84.64;;
57092;Laerm;42968;52.094;4.328;2023-06-22T04:21:59;65.01;43.44;78.18;;
57092;Laerm;42968;52.094;4.328;2023-06-22T04:24:27;65.61;46.33;80.14;;
57092;Laerm;42968;52.094;4.328;2023-06-22T04:26:53;66.08;45.86;77.25;;
57092;Laerm;42968;52.094;4.328;2023-06-22T04:29:19;65.63;44.07;76.40;;
57092;Laerm;42968;52.094;4.328;2023-06-22T04:31:44;67.93;47.26;80.18;;
57092;Laerm;42968;52.094;4.328;2023-06-22T04:34:12;67.92;45.94;82.38;;
57092;Laerm;42968;52.094;4.328;2023-06-22T04:36:41;72.53;44.94;90.31;;
57092;Laerm;42968;52.094;4.328;2023-06-22T04:39:07;70.50;51.82;84.42;;
57092;Laerm;42968;52.094;4.328;2023-06-22T04:41:34;67.38;49.24;78.05;;
57092;Laerm;42968;52.094;4.328;2023-06-22T04:44:07;71.96;48.28;85.21;;
57092;Laerm;42968;52.094;4.328;2023-06-22T04:46:32;68.61;50.19;84.46;;
57092;Laerm;42968;52.094;4.328;2023-06-22T04:49:00;67.33;49.58;78.75;;
57092;Laerm;42968;52.094;4.328;2023-06-22T04:51:25;68.67;47.93;85.81;;
57092;Laerm;42968;52.094;4.328;2023-06-22T04:53:55;68.49;46.15;78.57;;
57092;Laerm;42968;52.094;4.328;2023-06-22T04:56:25;68.52;47.76;80.64;;
57092;Laerm;42968;52.094;4.328;2023-06-22T04:58:53;69.08;44.11;79.94;;
57092;Laerm;42968;52.094;4.328;2023-06-22T05:01:20;67.00;47.40;77.83;;
57092;Laerm;42968;52.094;4.328;2023-06-22T05:03:47;69.21;45.48;78.03;;
57092;Laerm;42968;52.094;4.328;2023-06-22T05:06:13;68.51;47.74;79.05;;
57092;Laerm;42968;52.094;4.328;2023-06-22T05:08:39;68.71;48.40;81.91;;
57092;Laerm;42968;52.094;4.328;2023-06-22T05:11:04;66.64;47.57;77.14;;
57092;Laerm;42968;52.094;4.328;2023-06-22T05:13:30;66.29;48.69;76.78;;
57092;Laerm;42968;52.094;4.328;2023-06-22T05:15:55;69.71;52.51;80.32;;
57092;Laerm;42968;52.094;4.328;2023-06-22T05:18:26;67.07;47.36;77.25;;
57092;Laerm;42968;52.094;4.328;2023-06-22T05:20:51;68.02;46.07;79.33;;
57092;Laerm;42968;52.094;4.328;2023-06-22T05:23:17;70.56;54.44;83.42;;
57092;Laerm;42968;52.094;4.328;2023-06-22T05:25:42;67.58;46.43;77.09;;
57092;Laerm;42968;52.094;4.328;2023-06-22T05:28:07;69.26;45.54;82.49;;
57092;Laerm;42968;52.094;4.328;2023-06-22T05:30:36;68.02;46.23;80.15;;
57092;Laerm;42968;52.094;4.328;2023-06-22T05:33:01;68.59;48.29;77.10;;
57092;Laerm;42968;52.094;4.328;2023-06-22T05:35:26;68.93;51.37;78.83;;
57092;Laerm;42968;52.094;4.328;2023-06-22T05:37:51;69.36;51.93;78.59;;
57092;Laerm;42968;52.094;4.328;2023-06-22T05:40:17;68.24;45.04;83.34;;
57092;Laerm;42968;52.094;4.328;2023-06-22T05:42:42;69.39;49.19;76.82;;
57092;Laerm;42968;52.094;4.328;2023-06-22T05:45:07;66.82;52.98;74.84;;
57092;Laerm;42968;52.094;4.328;2023-06-22T05:47:33;74.41;51.94;91.82;;
57092;Laerm;42968;52.094;4.328;2023-06-22T05:49:58;68.69;51.22;82.39;;
57092;Laerm;42968;52.094;4.328;2023-06-22T05:52:23;69.71;52.25;78.61;;
57092;Laerm;42968;52.094;4.328;2023-06-22T05:54:49;69.78;47.74;80.84;;
57092;Laerm;42968;52.094;4.328;2023-06-22T05:57:14;68.98;49.63;77.08;;
57092;Laerm;42968;52.094;4.328;2023-06-22T05:59:40;69.84;53.95;77.53;;
57092;Laerm;42968;52.094;4.328;2023-06-22T06:02:05;69.32;59.17;78.51;;
57092;Laerm;42968;52.094;4.328;2023-06-22T06:04:30;69.15;49.29;78.53;;
57092;Laerm;42968;52.094;4.328;2023-06-22T06:06:56;69.45;54.56;80.09;;
57092;Laerm;42968;52.094;4.328;2023-06-22T06:09:21;69.66;50.39;79.44;;
57092;Laerm;42968;52.094;4.328;2023-06-22T06:11:46;70.21;55.67;85.90;;
57092;Laerm;42968;52.094;4.328;2023-06-22T06:14:12;69.89;51.10;85.05;;
57092;Laerm;42968;52.094;4.328;2023-06-22T06:16:37;70.22;48.95;79.93;;
57092;Laerm;42968;52.094;4.328;2023-06-22T06:19:02;70.12;51.15;80.85;;
57092;Laerm;42968;52.094;4.328;2023-06-22T06:21:27;68.58;55.31;80.90;;
57092;Laerm;42968;52.094;4.328;2023-06-22T06:23:53;68.98;58.08;78.66;;
57092;Laerm;42968;52.094;4.328;2023-06-22T06:26:18;70.83;56.31;79.51;;
57092;Laerm;42968;52.094;4.328;2023-06-22T06:28:48;70.88;49.71;82.00;;
57092;Laerm;42968;52.094;4.328;2023-06-22T06:31:13;70.37;51.40;88.45;;
57092;Laerm;42968;52.094;4.328;2023-06-22T06:33:42;68.29;55.63;79.87;;
57092;Laerm;42968;52.094;4.328;2023-06-22T06:36:07;69.04;55.58;76.83;;
57092;Laerm;42968;52.094;4.328;2023-06-22T06:38:33;69.29;54.77;79.33;;
57092;Laerm;42968;52.094;4.328;2023-06-22T06:40:58;69.67;59.66;83.96;;
57092;Laerm;42968;52.094;4.328;2023-06-22T06:43:24;69.07;56.47;83.62;;
57092;Laerm;42968;52.094;4.328;2023-06-22T06:45:49;71.61;52.39;83.07;;
57092;Laerm;42968;52.094;4.328;2023-06-22T06:48:15;67.19;54.18;77.53;;
57092;Laerm;42968;52.094;4.328;2023-06-22T06:50:40;69.26;57.08;80.72;;
57092;Laerm;42968;52.094;4.328;2023-06-22T06:53:05;70.15;56.93;81.46;;
57092;Laerm;42968;52.094;4.328;2023-06-22T06:55:31;69.11;58.75;80.83;;
57092;Laerm;42968;52.094;4.328;2023-06-22T06:57:57;67.61;53.46;81.48;;
57092;Laerm;42968;52.094;4.328;2023-06-22T07:00:23;70.73;45.63;90.31;;
57092;Laerm;42968;52.094;4.328;2023-06-22T07:02:50;68.65;49.32;81.70;;
57092;Laerm;42968;52.094;4.328;2023-06-22T07:05:15;71.87;50.18;86.34;;
57092;Laerm;42968;52.094;4.328;2023-06-22T07:07:40;69.43;52.33;77.62;;
57092;Laerm;42968;52.094;4.328;2023-06-22T07:10:06;68.08;55.48;80.07;;
57092;Laerm;42968;52.094;4.328;2023-06-22T07:12:32;70.43;56.00;83.39;;
57092;Laerm;42968;52.094;4.328;2023-06-22T07:15:01;69.30;50.78;80.56;;
57092;Laerm;42968;52.094;4.328;2023-06-22T07:17:27;66.33;48.07;75.88;;
57092;Laerm;42968;52.094;4.328;2023-06-22T07:19:52;70.78;50.73;85.53;;
57092;Laerm;42968;52.094;4.328;2023-06-22T07:22:18;70.32;53.79;81.71;;
57092;Laerm;42968;52.094;4.328;2023-06-22T07:24:43;69.35;51.91;80.37;;
57092;Laerm;42968;52.094;4.328;2023-06-22T07:27:08;69.22;49.44;79.21;;
57092;Laerm;42968;52.094;4.328;2023-06-22T07:29:36;67.92;55.77;74.89;;
57092;Laerm;42968;52.094;4.328;2023-06-22T07:32:01;68.74;48.05;78.53;;
57092;Laerm;42968;52.094;4.328;2023-06-22T07:34:29;69.05;47.67;83.62;;
57092;Laerm;42968;52.094;4.328;2023-06-22T07:36:55;68.34;57.58;77.06;;
57092;Laerm;42968;52.094;4.328;2023-06-22T07:39:20;68.42;48.40;78.84;;
57092;Laerm;42968;52.094;4.328;2023-06-22T07:41:50;69.36;51.76;79.82;;
57092;Laerm;42968;52.094;4.328;2023-06-22T07:44:16;68.65;52.83;80.36;;
57092;Laerm;42968;52.094;4.328;2023-06-22T07:46:41;69.14;50.07;83.54;;
57092;Laerm;42968;52.094;4.328;2023-06-22T07:49:06;69.15;51.67;81.34;;
57092;Laerm;42968;52.094;4.328;2023-06-22T07:51:33;67.53;46.64;78.62;;
57092;Laerm;42968;52.094;4.328;2023-06-22T07:53:59;68.82;52.92;77.30;;
57092;Laerm;42968;52.094;4.328;2023-06-22T07:56:24;69.14;46.93;81.50;;
57092;Laerm;42968;52.094;4.328;2023-06-22T07:58:49;68.06;48.08;77.04;;
57092;Laerm;42968;52.094;4.328;2023-06-22T08:01:15;66.54;46.23;87.42;;
57092;Laerm;42968;52.094;4.328;2023-06-22T08:03:40;68.71;46.89;79.79;;
57092;Laerm;42968;52.094;4.328;2023-06-22T08:06:07;68.26;45.30;78.48;;
57092;Laerm;42968;52.094;4.328;2023-06-22T08:08:34;68.51;48.90;77.00;;
57092;Laerm;42968;52.094;4.328;2023-06-22T08:10:59;66.78;47.26;78.96;;
57092;Laerm;42968;52.094;4.328;2023-06-22T08:13:25;66.68;49.24;75.98;;
57092;Laerm;42968;52.094;4.328;2023-06-22T08:15:50;69.22;48.70;85.00;;
57092;Laerm;42968;52.094;4.328;2023-06-22T08:18:15;67.95;48.29;84.23;;
57092;Laerm;42968;52.094;4.328;2023-06-22T08:20:41;68.50;48.76;77.09;;
57092;Laerm;42968;52.094;4.328;2023-06-22T08:23:06;68.50;49.47;76.62;;
57092;Laerm;42968;52.094;4.328;2023-06-22T08:25:32;67.27;48.69;78.23;;
57092;Laerm;42968;52.094;4.328;2023-06-22T08:27:58;71.35;54.13;94.42;;
57092;Laerm;42968;52.094;4.328;2023-06-22T08:30:23;68.63;53.86;77.58;;
57092;Laerm;42968;52.094;4.328;2023-06-22T08:32:48;67.31;50.91;79.96;;
57092;Laerm;42968;52.094;4.328;2023-06-22T08:35:13;67.67;51.86;81.20;;
57092;Laerm;42968;52.094;4.328;2023-06-22T08:37:39;69.16;57.08;82.12;;
57092;Laerm;42968;52.094;4.328;2023-06-22T08:40:05;69.22;52.95;79.06;;
57092;Laerm;42968;52.094;4.328;2023-06-22T08:42:32;68.65;52.45;79.20;;
57092;Laerm;42968;52.094;4.328;2023-06-22T08:44:58;68.13;45.97;77.74;;
57092;Laerm;42968;52.094;4.328;2023-06-22T08:47:23;66.53;46.10;75.76;;
57092;Laerm;42968;52.094;4.328;2023-06-22T08:49:48;67.57;53.07;77.42;;
57092;Laerm;42968;52.094;4.328;2023-06-22T08:52:14;68.69;49.45;81.04;;
57092;Laerm;42968;52.094;4.328;2023-06-22T08:54:39;67.73;47.88;82.35;;
57092;Laerm;42968;52.094;4.328;2023-06-22T08:57:05;66.93;45.97;78.48;;
57092;Laerm;42968;52.094;4.328;2023-06-22T08:59:30;67.39;47.54;77.07;;
57092;Laerm;42968;52.094;4.328;2023-06-22T09:01:55;67.15;47.48;78.04;;
57092;Laerm;42968;52.094;4.328;2023-06-22T09:04:22;67.55;50.28;78.18;;
57092;Laerm;42968;52.094;4.328;2023-06-22T09:06:48;70.23;48.16;86.90;;
57092;Laerm;42968;52.094;4.328;2023-06-22T09:09:15;66.59;51.13;74.23;;
57092;Laerm;42968;52.094;4.328;2023-06-22T09:11:40;67.90;52.36;77.41;;
57092;Laerm;42968;52.094;4.328;2023-06-22T09:14:06;68.89;46.93;79.27;;
57092;Laerm;42968;52.094;4.328;2023-06-22T09:16:31;70.48;45.11;84.93;;
57092;Laerm;42968;52.094;4.328;2023-06-22T09:18:56;66.83;46.62;75.93;;
57092;Laerm;42968;52.094;4.328;2023-06-22T09:21:23;67.23;48.94;76.84;;
57092;Laerm;42968;52.094;4.328;2023-06-22T09:23:48;68.78;47.26;82.41;;
57092;Laerm;42968;52.094;4.328;2023-06-22T09:26:16;66.89;47.11;83.03;;
57092;Laerm;42968;52.094;4.328;2023-06-22T09:28:41;68.59;49.92;80.72;;
57092;Laerm;42968;52.094;4.328;2023-06-22T09:31:06;69.47;50.82;78.45;;
57092;Laerm;42968;52.094;4.328;2023-06-22T09:33:32;67.82;46.82;81.44;;
57092;Laerm;42968;52.094;4.328;2023-06-22T09:35:57;69.24;44.83;83.26;;
57092;Laerm;42968;52.094;4.328;2023-06-22T09:38:22;65.89;44.76;76.01;;
57092;Laerm;42968;52.094;4.328;2023-06-22T09:40:48;67.49;48.76;75.63;;
57092;Laerm;42968;52.094;4.328;2023-06-22T09:43:13;67.92;48.74;76.37;;
57092;Laerm;42968;52.094;4.328;2023-06-22T09:45:38;67.16;47.26;76.54;;
57092;Laerm;42968;52.094;4.328;2023-06-22T09:48:03;67.36;46.45;78.14;;
57092;Laerm;42968;52.094;4.328;2023-06-22T09:50:29;68.26;45.75;78.67;;
57092;Laerm;42968;52.094;4.328;2023-06-22T09:52:54;68.36;45.94;81.17;;
57092;Laerm;42968;52.094;4.328;2023-06-22T09:55:22;68.52;45.07;82.68;;
57092;Laerm;42968;52.094;4.328;2023-06-22T09:57:48;71.36;50.31;87.21;;
57092;Laerm;42968;52.094;4.328;2023-06-22T10:00:15;69.87;46.59;80.53;;
57092;Laerm;42968;52.094;4.328;2023-06-22T10:02:41;69.77;49.27;87.43;;
57092;Laerm;42968;52.094;4.328;2023-06-22T10:05:07;68.69;44.76;78.28;;
57092;Laerm;42968;52.094;4.328;2023-06-22T10:07:32;69.38;48.29;78.66;;
57092;Laerm;42968;52.094;4.328;2023-06-22T10:09:58;68.94;53.31;77.65;;
57092;Laerm;42968;52.094;4.328;2023-06-22T10:12:23;67.96;50.45;76.86;;
57092;Laerm;42968;52.094;4.328;2023-06-22T10:14:48;67.99;44.51;78.26;;
57092;Laerm;42968;52.094;4.328;2023-06-22T10:17:14;67.49;47.22;84.26;;
57092;Laerm;42968;52.094;4.328;2023-06-22T10:19:39;69.82;55.63;81.27;;
57092;Laerm;42968;52.094;4.328;2023-06-22T10:22:06;70.19;50.75;83.29;;
57092;Laerm;42968;52.094;4.328;2023-06-22T10:24:31;67.75;47.84;77.96;;
57092;Laerm;42968;52.094;4.328;2023-06-22T10:26:57;67.94;49.52;78.77;;
57092;Laerm;42968;52.094;4.328;2023-06-22T10:29:22;68.98;51.84;78.30;;
57092;Laerm;42968;52.094;4.328;2023-06-22T10:31:47;70.43;49.11;83.21;;
57092;Laerm;42968;52.094;4.328;2023-06-22T10:34:12;68.41;45.45;78.80;;
57092;Laerm;42968;52.094;4.328;2023-06-22T10:36:38;69.26;53.57;82.28;;
57092;Laerm;42968;52.094;4.328;2023-06-22T10:39:03;69.30;57.31;79.95;;
57092;Laerm;42968;52.094;4.328;2023-06-22T10:41:28;69.29;47.42;82.26;;
57092;Laerm;42968;52.094;4.328;2023-06-22T10:43:57;70.23;51.98;84.55;;
57092;Laerm;42968;52.094;4.328;2023-06-22T10:46:24;68.90;53.99;77.54;;
57092;Laerm;42968;52.094;4.328;2023-06-22T10:48:49;69.50;50.24;85.57;;
57092;Laerm;42968;52.094;4.328;2023-06-22T10:51:14;67.57;56.32;77.73;;
57092;Laerm;42968;52.094;4.328;2023-06-22T10:53:39;69.35;53.89;77.35;;
57092;Laerm;42968;52.094;4.328;2023-06-22T10:56:04;68.61;49.36;79.76;;
57092;Laerm;42968;52.094;4.328;2023-06-22T10:58:30;66.99;48.02;73.51;;
57092;Laerm;42968;52.094;4.328;2023-06-22T11:00:55;69.03;45.66;80.03;;
57092;Laerm;42968;52.094;4.328;2023-06-22T11:03:20;67.82;46.69;76.46;;
57092;Laerm;42968;52.094;4.328;2023-06-22T11:05:46;68.09;47.57;80.46;;
57092;Laerm;42968;52.094;4.328;2023-06-22T11:08:12;69.82;49.00;83.52;;
57092;Laerm;42968;52.094;4.328;2023-06-22T11:10:38;68.86;53.73;81.01;;
57092;Laerm;42968;52.094;4.328;2023-06-22T11:13:03;67.82;52.03;76.11;;
57092;Laerm;42968;52.094;4.328;2023-06-22T11:15:29;69.69;49.27;77.63;;
57092;Laerm;42968;52.094;4.328;2023-06-22T11:17:54;68.48;51.18;79.83;;
57092;Laerm;42968;52.094;4.328;2023-06-22T11:20:19;69.02;52.50;77.56;;
57092;Laerm;42968;52.094;4.328;2023-06-22T11:22:45;68.21;52.39;78.15;;
57092;Laerm;42968;52.094;4.328;2023-06-22T11:25:10;68.72;47.57;82.20;;
57092;Laerm;42968;52.094;4.328;2023-06-22T11:27:37;67.72;47.84;77.75;;
57092;Laerm;42968;52.094;4.328;2023-06-22T11:30:02;67.36;49.91;75.15;;
57092;Laerm;42968;52.094;4.328;2023-06-22T11:32:28;68.13;47.32;77.28;;
57092;Laerm;42968;52.094;4.328;2023-06-22T11:34:53;69.11;49.43;80.90;;
57092;Laerm;42968;52.094;4.328;2023-06-22T11:37:18;68.54;47.12;80.09;;
57092;Laerm;42968;52.094;4.328;2023-06-22T11:39:43;68.46;53.00;81.92;;
57092;Laerm;42968;52.094;4.328;2023-06-22T11:42:09;67.02;54.77;78.21;;
57092;Laerm;42968;52.094;4.328;2023-06-22T11:44:34;68.99;53.59;78.47;;
57092;Laerm;42968;52.094;4.328;2023-06-22T11:47:00;68.47;53.49;79.68;;
57092;Laerm;42968;52.094;4.328;2023-06-22T11:49:26;68.96;46.13;77.68;;
57092;Laerm;42968;52.094;4.328;2023-06-22T11:51:51;69.01;55.09;80.70;;
57092;Laerm;42968;52.094;4.328;2023-06-22T11:54:16;69.68;52.09;86.39;;
57092;Laerm;42968;52.094;4.328;2023-06-22T11:56:42;67.80;50.00;82.71;;
57092;Laerm;42968;52.094;4.328;2023-06-22T11:59:07;68.78;47.02;78.36;;
57092;Laerm;42968;52.094;4.328;2023-06-22T12:01:32;67.99;47.48;78.29;;
57092;Laerm;42968;52.094;4.328;2023-06-22T12:03:58;68.92;50.55;78.87;;
57092;Laerm;42968;52.094;4.328;2023-06-22T12:06:23;74.21;45.30;99.66;;
57092;Laerm;42968;52.094;4.328;2023-06-22T12:08:48;68.90;49.56;76.30;;
57092;Laerm;42968;52.094;4.328;2023-06-22T12:11:14;68.91;47.42;78.97;;
57092;Laerm;42968;52.094;4.328;2023-06-22T12:13:39;70.28;55.89;81.70;;
57092;Laerm;42968;52.094;4.328;2023-06-22T12:16:04;69.67;45.51;78.98;;
57092;Laerm;42968;52.094;4.328;2023-06-22T12:18:29;70.30;50.85;83.03;;
57092;Laerm;42968;52.094;4.328;2023-06-22T12:20:55;70.08;50.87;80.15;;
57092;Laerm;42968;52.094;4.328;2023-06-22T12:23:21;68.15;56.36;75.58;;
57092;Laerm;42968;52.094;4.328;2023-06-22T12:25:46;67.76;54.31;73.63;;
57092;Laerm;42968;52.094;4.328;2023-06-22T12:28:11;71.28;47.20;91.00;;
57092;Laerm;42968;52.094;4.328;2023-06-22T12:30:36;68.02;48.66;76.64;;
57092;Laerm;42968;52.094;4.328;2023-06-22T12:33:02;68.78;56.56;82.42;;
57092;Laerm;42968;52.094;4.328;2023-06-22T12:35:27;70.80;50.79;86.41;;
57092;Laerm;42968;52.094;4.328;2023-06-22T12:37:52;69.78;50.42;84.57;;
57092;Laerm;42968;52.094;4.328;2023-06-22T12:40:18;70.21;49.33;83.51;;
57092;Laerm;42968;52.094;4.328;2023-06-22T12:42:44;69.88;53.87;81.95;;
57092;Laerm;42968;52.094;4.328;2023-06-22T12:45:09;69.28;49.83;80.67;;
57092;Laerm;42968;52.094;4.328;2023-06-22T12:47:34;69.17;50.76;82.60;;
57092;Laerm;42968;52.094;4.328;2023-06-22T12:50:00;68.23;52.32;77.96;;
57092;Laerm;42968;52.094;4.328;2023-06-22T12:52:25;70.25;51.63;81.84;;
57092;Laerm;42968;52.094;4.328;2023-06-22T12:54:50;68.26;45.07;76.97;;
57092;Laerm;42968;52.094;4.328;2023-06-22T12:57:17;71.57;54.72;83.76;;
57092;Laerm;42968;52.094;4.328;2023-06-22T12:59:42;68.62;49.27;80.24;;
57092;Laerm;42968;52.094;4.328;2023-06-22T13:02:08;69.65;53.58;80.08;;
57092;Laerm;42968;52.094;4.328;2023-06-22T13:04:33;69.63;57.01;76.67;;
57092;Laerm;42968;52.094;4.328;2023-06-22T13:06:58;69.31;55.63;79.00;;
57092;Laerm;42968;52.094;4.328;2023-06-22T13:09:23;69.01;52.27;79.53;;
57092;Laerm;42968;52.094;4.328;2023-06-22T13:11:49;69.17;56.72;81.91;;
57092;Laerm;42968;52.094;4.328;2023-06-22T13:14:14;70.55;52.69;82.04;;
57092;Laerm;42968;52.094;4.328;2023-06-22T13:16:41;68.10;54.29;83.69;;
57092;Laerm;42968;52.094;4.328;2023-06-22T13:19:06;71.07;53.47;82.81;;
57092;Laerm;42968;52.094;4.328;2023-06-22T13:21:31;69.80;50.07;80.67;;
57092;Laerm;42968;52.094;4.328;2023-06-22T13:23:57;68.32;53.97;79.06;;
57092;Laerm;42968;52.094;4.328;2023-06-22T13:26:22;68.94;54.71;79.66;;
57092;Laerm;42968;52.094;4.328;2023-06-22T13:28:48;68.22;47.03;78.87;;
57092;Laerm;42968;52.094;4.328;2023-06-22T13:31:13;70.00;47.61;83.58;;
57092;Laerm;42968;52.094;4.328;2023-06-22T13:33:38;69.69;54.93;82.21;;
57092;Laerm;42968;52.094;4.328;2023-06-22T13:36:05;69.94;51.86;81.85;;
57092;Laerm;42968;52.094;4.328;2023-06-22T13:38:31;68.17;52.73;75.46;;